Time;durP1;ratioP1;P1;durP2;ratioP2;P2;SDS_P1;SDS_P2;PMS_P1;PMS_P2;Temp;Humidity;BMP_temperature;BMP_pressure;BME280_temperature;BME280_humidity;BME280_pressure;Samples;Min_cycle;Max_cycle;Signal;HPM_P1;HPM_P2
2022/08/26 00:01:46;;;;;;;0.00;0.00;;;;;;;20.77;93.55;101386.47;5021842;28;20033;-68
2022/08/26 00:04:12;;;;;;;0.00;0.00;;;;;;;20.88;92.98;101397.00;5020986;28;20397;-68
2022/08/26 00:06:37;;;;;;;0.00;0.00;;;;;;;20.85;93.09;101391.06;5026625;28;20475;-69
2022/08/26 00:09:04;;;;;;;0.00;0.00;;;;;;;20.90;93.21;101403.16;5025082;28;20076;-68
2022/08/26 00:11:29;;;;;;;0.05;0.03;;;;;;;20.92;92.70;101397.53;5027398;28;20036;-69
2022/08/26 00:13:55;;;;;;;0.00;0.00;;;;;;;20.74;93.30;101368.53;5022421;28;20026;-68
2022/08/26 00:16:22;;;;;;;0.00;0.00;;;;;;;20.93;93.28;101391.88;5024675;28;20040;-67
2022/08/26 00:18:47;;;;;;;0.10;0.10;;;;;;;20.88;93.33;101388.00;5021923;28;20451;-67
2022/08/26 00:21:12;;;;;;;0.00;0.00;;;;;;;20.91;93.16;101398.56;5024226;28;20030;-67
2022/08/26 00:23:38;;;;;;;0.00;0.00;;;;;;;20.87;93.27;101389.84;5022592;28;20057;-67
2022/08/26 00:26:04;;;;;;;0.00;0.00;;;;;;;20.96;92.92;101399.72;5024768;28;20193;-67
2022/08/26 00:28:30;;;;;;;0.00;0.00;;;;;;;20.85;93.25;101394.63;5025133;28;20021;-69
2022/08/26 00:30:55;;;;;;;0.00;0.00;;;;;;;20.94;93.12;101400.91;5026402;28;20553;-67
2022/08/26 00:33:21;;;;;;;0.00;0.00;;;;;;;20.96;92.35;101398.88;5022960;28;20028;-68
2022/08/26 00:35:47;;;;;;;0.00;0.00;;;;;;;20.78;92.99;101380.84;5024683;28;20502;-68
2022/08/26 00:38:13;;;;;;;0.00;0.00;;;;;;;20.96;92.64;101418.84;5023930;28;20048;-69
2022/08/26 00:40:47;;;;;;;0.00;0.00;;;;;;;21.04;91.53;101404.31;5021646;28;20025;-69
2022/08/26 00:43:13;;;;;;;0.00;0.00;;;;;;;20.96;92.52;101410.66;5022793;28;20025;-68
2022/08/26 00:45:44;;;;;;;0.00;0.00;;;;;;;20.98;92.09;101407.72;5020773;28;20037;-68
2022/08/26 00:48:10;;;;;;;0.00;0.00;;;;;;;21.03;91.85;101410.78;5023610;28;20017;-70
2022/08/26 00:50:40;;;;;;;0.00;0.00;;;;;;;21.01;92.23;101407.38;5021799;28;20026;-68
2022/08/26 00:53:20;;;;;;;0.00;0.00;;;;;;;21.07;91.37;101409.41;5023400;28;20052;-68
2022/08/26 00:55:54;;;;;;;0.00;0.00;;;;;;;20.84;91.41;101376.56;5017809;28;20029;-69
2022/08/26 00:58:21;;;;;;;0.00;0.00;;;;;;;20.98;91.15;101407.72;5021606;28;20585;-69
2022/08/26 01:00:47;;;;;;;0.00;0.00;;;;;;;21.00;91.05;101415.75;5017512;28;20496;-68
2022/08/26 01:03:13;;;;;;;0.00;0.00;;;;;;;21.07;90.87;101405.81;5022198;28;20244;-67
2022/08/26 01:05:40;;;;;;;0.00;0.00;;;;;;;21.00;90.91;101408.41;5023533;28;20072;-67
2022/08/26 01:08:05;;;;;;;0.00;0.00;;;;;;;20.94;91.72;101400.91;5022515;28;20033;-68
2022/08/26 01:10:31;;;;;;;0.00;0.00;;;;;;;20.96;91.29;101398.88;5021340;28;20029;-69
2022/08/26 01:13:02;;;;;;;0.05;0.05;;;;;;;20.87;91.69;101399.94;5018520;28;20075;-67
2022/08/26 01:15:41;;;;;;;0.00;0.00;;;;;;;20.79;92.07;101400.81;5020167;28;20029;-69
2022/08/26 01:18:06;;;;;;;0.00;0.00;;;;;;;20.85;91.28;101405.53;5023952;28;20045;-69
2022/08/26 01:20:56;;;;;;;0.00;0.00;;;;;;;20.83;90.83;101408.47;5025182;28;20108;-69
2022/08/26 01:23:22;;;;;;;0.00;0.00;;;;;;;20.71;91.27;101390.69;5018377;28;20396;-69
2022/08/26 01:25:52;;;;;;;0.00;0.00;;;;;;;20.88;91.27;101404.38;5021731;28;20144;-68
2022/08/26 01:28:21;;;;;;;0.00;0.00;;;;;;;20.79;90.96;101396.19;5021891;28;20541;-68
2022/08/26 01:30:48;;;;;;;0.00;0.00;;;;;;;20.84;90.77;101409.28;5024646;28;20691;-68
2022/08/26 01:33:16;;;;;;;0.00;0.00;;;;;;;20.85;90.12;101412.91;5013194;28;20116;-69
2022/08/26 01:35:43;;;;;;;0.00;0.00;;;;;;;20.68;91.38;101410.16;5025383;28;20028;-70
2022/08/26 01:38:08;;;;;;;0.00;0.00;;;;;;;20.61;91.74;101403.69;5025370;28;20021;-69
2022/08/26 01:40:36;;;;;;;0.05;0.05;;;;;;;20.64;91.29;101401.47;5026065;28;20083;-68
2022/08/26 01:43:05;;;;;;;0.00;0.00;;;;;;;20.61;90.68;101410.00;5020873;28;20047;-68
2022/08/26 01:45:32;;;;;;;0.00;0.00;;;;;;;20.59;91.15;101403.84;5023875;28;20035;-68
2022/08/26 01:47:59;;;;;;;0.00;0.00;;;;;;;20.55;91.60;101418.84;5024932;28;20059;-68
2022/08/26 01:50:27;;;;;;;0.00;0.00;;;;;;;20.51;91.69;101406.59;5024202;28;20026;-68
2022/08/26 01:52:54;;;;;;;0.00;0.00;;;;;;;20.51;91.63;101409.34;5020542;28;20081;-69
2022/08/26 01:55:19;;;;;;;0.00;0.00;;;;;;;20.41;92.23;101419.56;5008141;28;20430;-68
2022/08/26 01:57:47;;;;;;;0.00;0.00;;;;;;;20.43;91.34;101414.78;5024251;28;20475;-68
2022/08/26 02:00:13;;;;;;;0.10;0.10;;;;;;;20.35;92.37;101416.47;5027604;28;20025;-68
2022/08/26 02:02:44;;;;;;;0.00;0.00;;;;;;;20.39;92.21;101419.75;5021436;28;20072;-68
2022/08/26 02:05:15;;;;;;;0.00;0.00;;;;;;;20.38;91.96;101420.75;5018530;28;20059;-68
2022/08/26 02:07:42;;;;;;;0.00;0.00;;;;;;;20.35;91.95;101402.84;5016645;28;20148;-68
2022/08/26 02:10:07;;;;;;;0.00;0.00;;;;;;;20.48;91.97;101415.13;5022652;28;20029;-68
2022/08/26 02:12:33;;;;;;;0.00;0.00;;;;;;;20.43;92.09;101403.88;5018910;28;20487;-68
2022/08/26 02:15:00;;;;;;;0.00;0.00;;;;;;;20.40;92.35;101405.06;5019774;28;20029;-69
2022/08/26 02:17:34;;;;;;;0.00;0.00;;;;;;;20.34;92.30;101398.41;5019710;28;20434;-68
2022/08/26 02:19:59;;;;;;;0.00;0.00;;;;;;;20.37;91.91;101403.53;5021421;28;20051;-68
2022/08/26 02:22:25;;;;;;;0.00;0.00;;;;;;;20.34;91.75;101398.41;5017483;28;20529;-69
2022/08/26 02:24:56;;;;;;;0.00;0.00;;;;;;;20.38;91.99;101410.69;5021878;28;20025;-69
2022/08/26 02:27:25;;;;;;;0.00;0.00;;;;;;;20.35;93.05;101421.09;5020242;28;20075;-69
2022/08/26 02:29:54;;;;;;;0.00;0.00;;;;;;;20.33;93.19;101420.41;5016581;28;20368;-69
2022/08/26 02:32:19;;;;;;;0.00;0.00;;;;;;;20.24;93.93;101416.84;5019328;28;20051;-69
2022/08/26 02:34:45;;;;;;;0.00;0.00;;;;;;;20.25;93.86;101415.81;5019382;28;20457;-69
2022/08/26 02:37:10;;;;;;;0.00;0.00;;;;;;;20.19;94.77;101413.75;5024398;28;20076;-69
2022/08/26 02:39:37;;;;;;;0.00;0.00;;;;;;;20.19;94.27;101408.31;5020689;28;20029;-69
2022/08/26 02:42:04;;;;;;;0.00;0.00;;;;;;;20.14;94.58;101403.34;5001171;28;20037;-68
2022/08/26 02:44:29;;;;;;;0.00;0.00;;;;;;;20.18;95.16;101407.44;5020458;28;20025;-68
2022/08/26 02:46:54;;;;;;;0.00;0.00;;;;;;;20.20;94.25;101412.75;5021367;28;20774;-69
2022/08/26 02:49:22;;;;;;;0.00;0.00;;;;;;;20.18;94.95;101421.06;5028735;28;20026;-69
2022/08/26 02:51:48;;;;;;;0.00;0.00;;;;;;;20.10;94.75;101407.44;5022124;28;20022;-69
2022/08/26 02:54:14;;;;;;;0.00;0.00;;;;;;;20.15;95.65;101418.69;5027990;28;20052;-69
2022/08/26 02:56:39;;;;;;;0.00;0.00;;;;;;;20.18;95.20;101415.63;5025370;28;20021;-69
2022/08/26 02:59:05;;;;;;;0.00;0.00;;;;;;;20.23;94.88;101410.50;5020620;28;20033;-69
2022/08/26 03:01:32;;;;;;;0.05;0.05;;;;;;;20.26;95.25;101417.50;5024846;28;20467;-69
2022/08/26 03:03:59;;;;;;;0.00;0.00;;;;;;;20.31;95.15;101422.44;5023426;28;20372;-69
2022/08/26 03:06:24;;;;;;;0.00;0.00;;;;;;;20.32;95.12;101425.00;5027161;28;20029;-69
2022/08/26 03:08:50;;;;;;;0.00;0.00;;;;;;;20.34;94.61;101424.84;5024003;28;20033;-69
2022/08/26 03:11:17;;;;;;;0.00;0.00;;;;;;;20.29;94.35;101421.78;5024049;28;20029;-69
2022/08/26 03:13:42;;;;;;;0.00;0.00;;;;;;;20.36;94.57;101428.25;5022498;28;20025;-69
2022/08/26 03:16:08;;;;;;;0.00;0.00;;;;;;;20.37;94.57;101430.78;5027082;28;20036;-69
2022/08/26 03:18:33;;;;;;;0.00;0.00;;;;;;;20.36;95.20;101426.38;5028047;28;20029;-69
2022/08/26 03:21:04;;;;;;;0.00;0.00;;;;;;;20.36;94.66;101429.09;5027794;28;20660;-69
2022/08/26 03:23:30;;;;;;;0.00;0.00;;;;;;;20.31;95.24;101423.28;5031173;28;20021;-69
2022/08/26 03:25:55;;;;;;;0.00;0.00;;;;;;;20.38;94.83;101424.31;5023316;28;20389;-69
2022/08/26 03:28:21;;;;;;;0.00;0.00;;;;;;;20.40;94.02;101415.13;5023866;28;20116;-70
2022/08/26 03:30:47;;;;;;;0.00;0.00;;;;;;;20.29;94.47;101398.06;5023500;28;20034;-69
2022/08/26 03:33:13;;;;;;;0.00;0.00;;;;;;;20.18;94.25;101382.91;5021280;28;20414;-69
2022/08/26 03:35:40;;;;;;;0.00;0.00;;;;;;;20.33;93.70;101395.88;5019145;28;20448;-69
2022/08/26 03:38:07;;;;;;;0.00;0.00;;;;;;;20.47;94.12;101432.50;5025894;28;22065;-69
2022/08/26 03:40:33;;;;;;;0.00;0.00;;;;;;;20.48;93.70;101426.03;5027532;28;20456;-69
2022/08/26 03:42:59;;;;;;;0.00;0.00;;;;;;;20.53;93.29;101427.22;5017470;28;20026;-69
2022/08/26 03:45:24;;;;;;;0.00;0.00;;;;;;;20.44;94.07;101419.22;5021979;28;20533;-69
2022/08/26 03:47:50;;;;;;;0.00;0.00;;;;;;;20.42;94.55;101421.25;5020003;28;20034;-68
2022/08/26 03:50:18;;;;;;;0.00;0.00;;;;;;;20.43;93.70;101437.44;5022135;28;20029;-69
2022/08/26 03:52:44;;;;;;;0.00;0.00;;;;;;;20.42;94.17;101432.16;5021339;28;20605;-68
2022/08/26 03:55:10;;;;;;;0.00;0.00;;;;;;;20.41;93.66;101420.38;5020351;28;20622;-70
2022/08/26 03:57:35;;;;;;;0.00;0.00;;;;;;;20.42;93.25;101430.28;5020197;28;20134;-67
2022/08/26 04:00:01;;;;;;;0.00;0.00;;;;;;;20.41;94.04;101428.56;5026578;28;20029;-67
2022/08/26 04:02:26;;;;;;;0.00;0.00;;;;;;;20.42;93.50;101433.00;5018883;28;20464;-67
2022/08/26 04:04:51;;;;;;;0.00;0.00;;;;;;;20.20;93.85;101404.56;5020422;28;20025;-67
2022/08/26 04:07:17;;;;;;;0.00;0.00;;;;;;;20.36;93.94;101433.72;5024572;28;20060;-67
2022/08/26 04:09:43;;;;;;;0.00;0.00;;;;;;;20.32;94.12;101421.44;5022287;28;20104;-67
2022/08/26 04:12:09;;;;;;;0.00;0.00;;;;;;;20.35;94.11;101435.56;5018948;28;20033;-67
2022/08/26 04:14:36;;;;;;;0.00;0.00;;;;;;;20.32;94.65;101435.91;5021953;28;20418;-67
2022/08/26 04:17:03;;;;;;;0.00;0.00;;;;;;;20.34;93.72;101427.56;5024525;28;20144;-67
2022/08/26 04:19:30;;;;;;;0.00;0.00;;;;;;;20.34;93.83;101427.56;5021656;28;20029;-67
2022/08/26 04:21:55;;;;;;;0.00;0.00;;;;;;;20.38;93.71;101418.03;5014064;28;20434;-67
2022/08/26 04:24:23;;;;;;;0.00;0.00;;;;;;;20.33;93.71;101429.44;5004688;28;20017;-67
2022/08/26 04:26:49;;;;;;;0.00;0.00;;;;;;;20.30;93.76;101429.75;5021585;28;20051;-67
2022/08/26 04:29:19;;;;;;;0.00;0.00;;;;;;;20.26;94.45;101422.94;5022103;28;20029;-69
2022/08/26 04:31:46;;;;;;;0.00;0.00;;;;;;;20.28;94.49;101425.50;5021756;28;20037;-67
2022/08/26 04:34:12;;;;;;;0.00;0.00;;;;;;;20.30;94.44;101426.19;5017318;28;20076;-67
2022/08/26 04:36:39;;;;;;;0.00;0.00;;;;;;;20.26;94.32;101425.66;5025673;28;20029;-67
2022/08/26 04:39:05;;;;;;;0.00;0.00;;;;;;;20.30;95.00;101435.22;5021103;28;20025;-67
2022/08/26 04:41:30;;;;;;;0.00;0.00;;;;;;;20.36;94.01;101433.72;5020300;28;20028;-67
2022/08/26 04:43:56;;;;;;;0.00;0.00;;;;;;;20.35;94.54;101437.47;5021722;28;20366;-67
2022/08/26 04:46:23;;;;;;;0.00;0.00;;;;;;;20.35;93.77;101440.19;5022873;28;20117;-67
2022/08/26 04:48:50;;;;;;;0.00;0.00;;;;;;;20.38;94.28;101442.56;5025032;28;20029;-67
2022/08/26 04:51:16;;;;;;;0.00;0.00;;;;;;;20.23;93.66;101415.13;5020287;28;20065;-67
2022/08/26 04:53:42;;;;;;;0.10;0.10;;;;;;;20.45;93.56;101442.75;5024118;28;20029;-67
2022/08/26 04:56:07;;;;;;;0.00;0.00;;;;;;;20.47;93.17;101449.72;5021836;28;20029;-67
2022/08/26 04:58:33;;;;;;;0.00;0.00;;;;;;;20.43;93.72;101447.50;5024559;28;20365;-67
2022/08/26 05:00:59;;;;;;;0.00;0.00;;;;;;;20.47;93.53;101447.00;5022933;28;20025;-67
2022/08/26 05:03:26;;;;;;;0.00;0.00;;;;;;;20.51;92.98;101444.78;5025822;28;20484;-67
2022/08/26 05:05:52;;;;;;;0.00;0.00;;;;;;;20.53;93.45;101449.03;5024785;28;20029;-67
2022/08/26 05:08:19;;;;;;;0.00;0.00;;;;;;;20.55;92.85;101451.59;5026053;28;20391;-67
2022/08/26 05:10:47;;;;;;;0.00;0.00;;;;;;;20.60;92.50;101451.09;5021178;28;20365;-67
2022/08/26 05:13:14;;;;;;;0.10;0.10;;;;;;;20.54;93.22;101460.78;5024003;28;20494;-68
2022/08/26 05:15:40;;;;;;;0.00;0.00;;;;;;;20.52;92.90;101452.78;5025537;28;20026;-67
2022/08/26 05:18:06;;;;;;;0.05;0.05;;;;;;;20.55;93.17;101458.94;5020587;28;20033;-68
2022/08/26 05:20:32;;;;;;;0.00;0.00;;;;;;;20.51;93.37;101459.28;5022750;28;20029;-67
2022/08/26 05:22:59;;;;;;;0.00;0.00;;;;;;;20.53;93.12;101461.81;5026988;28;20037;-67
2022/08/26 05:25:26;;;;;;;0.00;0.00;;;;;;;20.55;93.31;101458.94;5023557;28;20033;-67
2022/08/26 05:27:51;;;;;;;0.00;0.00;;;;;;;20.39;92.96;101444.28;5026346;28;20025;-67
2022/08/26 05:30:17;;;;;;;0.00;0.00;;;;;;;20.49;93.38;101464.03;5022193;28;20482;-67
2022/08/26 05:32:42;;;;;;;0.00;0.00;;;;;;;20.51;93.31;101469.34;5022649;28;20141;-67
2022/08/26 05:35:08;;;;;;;0.00;0.00;;;;;;;20.52;92.89;101465.59;5021819;28;20047;-67
2022/08/26 05:37:33;;;;;;;0.00;0.00;;;;;;;20.58;92.56;101466.78;5027377;28;20045;-67
2022/08/26 05:39:58;;;;;;;0.00;0.00;;;;;;;20.61;92.10;101464.56;5022245;28;20033;-67
2022/08/26 05:42:24;;;;;;;0.00;0.00;;;;;;;20.58;92.83;101461.31;5021181;28;20060;-68
2022/08/26 05:44:52;;;;;;;0.05;0.05;;;;;;;20.54;93.10;101468.97;5009708;28;20026;-67
2022/08/26 05:47:17;;;;;;;0.03;0.03;;;;;;;20.59;92.39;101466.59;5023800;28;20033;-68
2022/08/26 05:49:43;;;;;;;0.00;0.00;;;;;;;20.59;91.98;101468.47;5024071;28;20475;-69
2022/08/26 05:52:08;;;;;;;0.10;0.10;;;;;;;20.55;92.50;101478.84;5020262;28;20478;-68
2022/08/26 05:54:33;;;;;;;0.00;0.00;;;;;;;20.51;92.57;101472.91;5019059;28;20153;-68
2022/08/26 05:56:59;;;;;;;0.10;0.00;;;;;;;20.48;92.98;101473.25;5018416;28;20543;-69
2022/08/26 05:59:25;;;;;;;0.10;0.10;;;;;;;20.53;92.69;101479.03;5019252;28;20025;-68
2022/08/26 06:01:53;;;;;;;0.10;0.10;;;;;;;20.53;92.64;101483.63;5011922;28;20048;-68
2022/08/26 06:04:18;;;;;;;0.00;0.00;;;;;;;20.45;92.13;101462.66;5017531;28;20029;-68
2022/08/26 06:06:43;;;;;;;0.00;0.00;;;;;;;20.58;92.62;101481.25;5015634;28;20421;-69
2022/08/26 06:09:09;;;;;;;0.00;0.00;;;;;;;20.63;91.77;101481.59;5018810;28;20034;-67
2022/08/26 06:11:34;;;;;;;0.00;0.00;;;;;;;20.60;92.77;101481.94;5011499;28;20033;-69
2022/08/26 06:14:03;;;;;;;0.00;0.00;;;;;;;20.65;91.99;101492.34;5018874;28;20060;-69
2022/08/26 06:16:28;;;;;;;0.00;0.00;;;;;;;20.67;92.02;101488.44;5018824;28;20029;-69
2022/08/26 06:18:54;;;;;;;0.00;0.00;;;;;;;20.71;91.93;101488.09;5019007;28;20041;-69
2022/08/26 06:21:23;;;;;;;0.00;0.00;;;;;;;20.74;91.95;101491.31;5015246;28;20848;-68
2022/08/26 06:26:35;;;;;;;0.00;0.00;;;;;;;20.79;91.70;101497.16;5014427;28;20498;-68
2022/08/26 06:29:01;;;;;;;0.00;0.00;;;;;;;20.77;91.40;101499.19;5015858;28;20040;-69
2022/08/26 06:31:27;;;;;;;0.00;0.00;;;;;;;20.81;91.34;101500.56;5019219;28;20480;-69
2022/08/26 06:33:53;;;;;;;0.00;0.00;;;;;;;20.87;90.73;101512.66;5017439;28;20112;-69
2022/08/26 06:36:24;;;;;;;0.00;0.00;;;;;;;20.89;90.49;101507.88;5021946;28;20039;-69
2022/08/26 06:38:50;;;;;;;0.00;0.00;;;;;;;20.88;91.33;101506.19;5022270;28;20071;-69
2022/08/26 06:41:16;;;;;;;0.00;0.00;;;;;;;20.95;90.44;101507.19;5023105;28;20034;-70
2022/08/26 06:43:42;;;;;;;0.00;0.00;;;;;;;20.94;90.67;101508.22;5027263;28;20102;-69
2022/08/26 06:46:10;;;;;;;0.00;0.00;;;;;;;20.95;90.52;101509.06;5019165;28;20116;-68
2022/08/26 06:48:36;;;;;;;0.00;0.00;;;;;;;20.95;90.54;101517.25;5020143;28;20040;-71
2022/08/26 06:51:03;;;;;;;0.00;0.00;;;;;;;20.94;90.36;101516.41;5022832;28;20034;-69
2022/08/26 06:53:29;;;;;;;0.00;0.00;;;;;;;20.90;89.60;101495.94;5024191;28;20029;-69
2022/08/26 06:55:54;;;;;;;0.00;0.00;;;;;;;21.05;89.48;101519.81;5020439;28;20052;-69
2022/08/26 06:58:19;;;;;;;0.00;0.00;;;;;;;21.03;89.12;101525.44;5020947;28;20029;-69
2022/08/26 07:00:45;;;;;;;0.00;0.00;;;;;;;20.94;89.41;101510.09;5017409;28;20033;-69
2022/08/26 07:03:10;;;;;;;0.00;0.00;;;;;;;20.95;89.86;101531.78;5022910;28;20329;-70
2022/08/26 07:05:35;;;;;;;0.03;0.03;;;;;;;20.97;89.27;101532.44;5021784;28;20072;-70
2022/08/26 07:08:01;;;;;;;0.08;0.08;;;;;;;20.96;89.40;101518.97;5015965;28;20479;-69
2022/08/26 07:10:26;;;;;;;0.00;0.00;;;;;;;20.91;89.25;101516.75;5018505;28;20199;-68
2022/08/26 07:12:52;;;;;;;0.08;0.08;;;;;;;21.01;89.19;101532.94;5015514;28;20482;-68
2022/08/26 07:15:18;;;;;;;0.00;0.00;;;;;;;20.99;89.06;101526.81;5020254;28;20534;-69
2022/08/26 07:17:43;;;;;;;0.00;0.00;;;;;;;20.98;89.28;101517.78;5017521;28;21128;-70
2022/08/26 07:20:10;;;;;;;0.00;0.00;;;;;;;21.03;88.66;101519.16;5018001;28;20033;-69
2022/08/26 07:22:36;;;;;;;0.00;0.00;;;;;;;21.02;89.59;101520.16;5013128;28;20515;-70
2022/08/26 07:25:06;;;;;;;0.00;0.00;;;;;;;21.02;88.73;101536.53;5020645;28;20033;-69
2022/08/26 07:27:32;;;;;;;0.00;0.00;;;;;;;21.04;88.38;101531.78;5020974;28;20029;-70
2022/08/26 07:29:57;;;;;;;0.00;0.00;;;;;;;21.05;88.33;101537.03;5024544;28;20074;-70
2022/08/26 07:32:22;;;;;;;0.00;0.00;;;;;;;21.01;89.03;101532.94;5020860;28;20051;-70
2022/08/26 07:34:48;;;;;;;0.00;0.00;;;;;;;21.00;88.76;101533.13;5018759;28;20459;-69
2022/08/26 07:37:13;;;;;;;0.00;0.00;;;;;;;21.08;88.08;101541.28;5017406;28;20045;-69
2022/08/26 07:39:40;;;;;;;0.00;0.00;;;;;;;21.05;88.33;101547.13;5021070;28;20093;-70
2022/08/26 07:42:06;;;;;;;0.08;0.00;;;;;;;21.07;87.74;101547.78;5021370;28;20116;-69
2022/08/26 07:44:31;;;;;;;0.00;0.00;;;;;;;20.95;88.20;101548.16;5021514;28;20106;-70
2022/08/26 07:46:57;;;;;;;0.00;0.00;;;;;;;20.75;88.73;101524.94;5020283;28;20029;-69
2022/08/26 07:49:25;;;;;;;0.00;0.00;;;;;;;20.93;88.30;101550.19;5016585;28;20030;-69
2022/08/26 07:51:50;;;;;;;0.00;0.00;;;;;;;20.89;88.88;101550.72;5019254;28;20072;-70
2022/08/26 07:54:16;;;;;;;0.00;0.00;;;;;;;20.97;88.02;101554.28;5016581;28;20023;-69
2022/08/26 07:56:42;;;;;;;0.00;0.00;;;;;;;21.00;88.42;101554.97;5024582;28;20029;-70
2022/08/26 07:59:07;;;;;;;0.00;0.00;;;;;;;20.93;88.70;101554.78;5018660;28;20232;-71
2022/08/26 08:01:33;;;;;;;0.00;0.00;;;;;;;20.95;87.80;101556.34;5020558;28;20038;-71
2022/08/26 08:03:59;;;;;;;0.00;0.00;;;;;;;20.98;87.86;101560.59;5022600;28;20458;-71
2022/08/26 08:06:25;;;;;;;0.00;0.00;;;;;;;20.90;87.71;101545.06;5019978;28;20541;-71
2022/08/26 08:08:51;;;;;;;0.00;0.00;;;;;;;21.09;87.43;101548.47;5020244;28;20030;-73
2022/08/26 08:11:20;;;;;;;0.00;0.00;;;;;;;20.96;86.83;101533.47;5017542;28;20025;-71
2022/08/26 08:13:46;;;;;;;0.00;0.00;;;;;;;21.07;86.63;101542.31;5001978;28;20495;-71
2022/08/26 08:16:11;;;;;;;0.00;0.00;;;;;;;21.22;86.05;101535.16;5020024;28;20121;-73
2022/08/26 08:18:37;;;;;;;0.00;0.00;;;;;;;21.53;85.10;101567.19;5017521;28;20033;-72
2022/08/26 08:21:02;;;;;;;0.00;0.00;;;;;;;21.58;84.69;101567.47;5020467;28;20022;-72
2022/08/26 08:23:30;;;;;;;0.00;0.00;;;;;;;21.71;84.37;101563.41;5019384;28;20037;-72
2022/08/26 08:26:00;;;;;;;0.00;0.00;;;;;;;21.86;84.80;101571.72;5017290;28;20100;-73
2022/08/26 08:28:25;;;;;;;0.00;0.00;;;;;;;21.92;83.71;101571.00;5016355;28;20033;-72
2022/08/26 08:30:50;;;;;;;0.00;0.00;;;;;;;21.88;83.21;101554.09;5018321;28;20421;-71
2022/08/26 08:33:16;;;;;;;0.00;0.00;;;;;;;22.03;83.29;101564.31;5013757;28;20033;-72
2022/08/26 08:35:42;;;;;;;0.00;0.00;;;;;;;22.12;82.49;101573.31;5013958;28;20105;-72
2022/08/26 08:38:07;;;;;;;0.00;0.00;;;;;;;22.20;82.48;101577.88;5014970;28;20037;-72
2022/08/26 08:40:33;;;;;;;0.00;0.00;;;;;;;22.11;82.08;101560.66;5017401;28;20034;-71
2022/08/26 08:43:08;;;;;;;0.00;0.00;;;;;;;22.22;82.33;101575.81;5019288;28;20379;-71
2022/08/26 08:45:53;;;;;;;0.00;0.00;;;;;;;22.21;81.95;101574.13;5018710;28;20341;-72
2022/08/26 08:48:22;;;;;;;0.00;0.00;;;;;;;22.25;81.22;101580.94;5018232;28;20132;-72
2022/08/26 08:51:13;;;;;;;0.00;0.00;;;;;;;22.27;80.81;101574.25;5016624;28;20116;-73
2022/08/26 08:53:41;;;;;;;0.00;0.00;;;;;;;22.18;81.39;101553.47;5008790;28;20049;-72
2022/08/26 08:56:11;;;;;;;0.00;0.00;;;;;;;22.15;81.73;101578.44;5015384;28;20033;-71
2022/08/26 08:59:06;;;;;;;0.00;0.00;;;;;;;22.14;81.04;101580.28;5015685;28;20047;-72
2022/08/26 09:01:50;;;;;;;0.03;0.03;;;;;;;22.14;81.16;101585.75;5015838;28;20499;-72
2022/08/26 09:04:52;;;;;;;0.00;0.00;;;;;;;22.14;80.96;101579.47;5019102;28;20149;-72
2022/08/26 09:07:21;;;;;;;0.00;0.00;;;;;;;22.09;81.12;101584.59;5014465;28;20026;-72
2022/08/26 09:10:10;;;;;;;0.00;0.00;;;;;;;22.01;81.29;101577.28;5018680;28;20029;-71
2022/08/26 09:12:35;;;;;;;0.10;0.10;;;;;;;22.00;81.10;101562.75;5009305;28;20069;-71
2022/08/26 09:15:17;;;;;;;0.10;0.00;;;;;;;22.10;80.34;101584.44;5016457;28;20459;-71
2022/08/26 09:18:10;;;;;;;0.00;0.00;;;;;;;22.10;80.21;101592.66;5018891;28;20534;-71
2022/08/26 09:20:47;;;;;;;0.00;0.00;;;;;;;21.99;80.57;101590.28;5016867;28;21735;-72
2022/08/26 09:23:13;;;;;;;0.00;0.00;;;;;;;22.00;80.80;101586.53;5018233;28;20510;-71
2022/08/26 09:25:51;;;;;;;0.00;0.00;;;;;;;21.75;81.23;101572.97;5019036;28;20033;-71
2022/08/26 09:28:19;;;;;;;0.00;0.00;;;;;;;21.93;81.08;101583.66;5018650;28;20026;-70
2022/08/26 09:30:45;;;;;;;0.08;0.00;;;;;;;21.94;80.93;101588.09;5017047;28;20028;-71
2022/08/26 09:33:15;;;;;;;0.00;0.00;;;;;;;21.79;81.14;101574.31;5017893;28;20444;-71
2022/08/26 09:35:45;;;;;;;0.10;0.10;;;;;;;21.85;81.56;101589.16;5018410;28;20131;-71
2022/08/26 09:38:27;;;;;;;0.00;0.00;;;;;;;21.83;81.75;101581.13;5016262;28;20029;-71
2022/08/26 09:41:02;;;;;;;0.00;0.00;;;;;;;21.86;81.00;101580.75;5014763;28;20484;-72
2022/08/26 09:43:28;;;;;;;0.00;0.00;;;;;;;21.78;80.84;101583.53;5013788;28;20464;-72
2022/08/26 09:46:15;;;;;;;0.00;0.00;;;;;;;21.62;81.05;101551.66;5019605;28;20032;-71
2022/08/26 09:48:41;;;;;;;0.00;0.00;;;;;;;21.81;81.27;101593.25;5009793;28;20346;-71
2022/08/26 09:51:20;;;;;;;0.00;0.00;;;;;;;21.76;81.00;101591.06;5019018;28;20856;-71
2022/08/26 09:53:54;;;;;;;0.00;0.00;;;;;;;21.63;81.36;101590.75;5019100;28;20029;-72
2022/08/26 09:56:26;;;;;;;0.00;0.00;;;;;;;21.56;81.99;101585.09;5018505;28;20457;-71
2022/08/26 09:58:52;;;;;;;0.00;0.00;;;;;;;21.54;82.19;101589.88;5021211;28;20025;-73
2022/08/26 10:01:38;;;;;;;0.00;0.00;;;;;;;21.62;81.77;101589.91;5021664;28;20052;-72
2022/08/26 10:04:23;;;;;;;0.00;0.00;;;;;;;21.57;82.04;101589.53;5017405;28;20029;-72
2022/08/26 10:07:01;;;;;;;0.00;0.00;;;;;;;21.53;82.31;101589.03;5016522;28;20033;-72
2022/08/26 10:09:27;;;;;;;0.00;0.00;;;;;;;21.66;81.67;101596.72;5017805;28;20502;-71
2022/08/26 10:11:56;;;;;;;0.00;0.00;;;;;;;21.53;81.80;101569.03;5021763;28;20033;-72
2022/08/26 10:14:45;;;;;;;0.00;0.00;;;;;;;21.54;82.71;101593.47;5019989;28;20456;-71
2022/08/26 10:17:28;;;;;;;0.00;0.00;;;;;;;21.61;82.11;101592.75;5016789;28;20210;-71
2022/08/26 10:19:56;;;;;;;0.00;0.00;;;;;;;21.43;82.41;101570.13;5019352;28;20037;-71
2022/08/26 10:22:26;;;;;;;0.00;0.00;;;;;;;21.60;82.95;101589.19;5021496;28;21068;-69
2022/08/26 10:24:55;;;;;;;0.00;0.00;;;;;;;21.67;82.28;101592.97;5016129;28;20115;-69
2022/08/26 10:27:31;;;;;;;0.00;0.00;;;;;;;21.62;82.82;101589.91;5014797;28;20022;-71
2022/08/26 10:30:03;;;;;;;0.00;0.00;;;;;;;21.65;81.89;101591.41;5018463;28;20030;-70
2022/08/26 10:32:36;;;;;;;0.00;0.00;;;;;;;21.62;81.64;101598.09;5016139;28;20056;-70
2022/08/26 10:35:02;;;;;;;0.00;0.00;;;;;;;21.55;81.71;101594.31;5016051;28;20025;-70
2022/08/26 10:37:35;;;;;;;0.00;0.00;;;;;;;21.56;81.60;101602.34;5017243;28;20037;-70
2022/08/26 10:40:10;;;;;;;0.10;0.10;;;;;;;21.51;83.18;101603.88;5013184;28;20037;-70
2022/08/26 10:42:47;;;;;;;0.00;0.00;;;;;;;21.51;82.26;101601.16;5012670;28;20446;-71
2022/08/26 10:45:18;;;;;;;0.00;0.00;;;;;;;21.41;82.16;101609.53;5017438;28;20534;-70
2022/08/26 10:47:51;;;;;;;0.10;0.00;;;;;;;21.45;81.69;101610.91;5011951;28;20028;-70
2022/08/26 10:50:17;;;;;;;0.00;0.00;;;;;;;21.47;81.99;101605.25;5019228;28;20073;-70
2022/08/26 10:53:04;;;;;;;0.00;0.00;;;;;;;21.44;81.69;101606.47;5018122;28;20045;-68
2022/08/26 10:55:44;;;;;;;0.00;0.00;;;;;;;21.42;81.74;101587.53;5014730;28;20063;-70
2022/08/26 10:58:24;;;;;;;0.00;0.00;;;;;;;21.51;81.79;101592.94;5021297;28;20025;-70
2022/08/26 11:04:13;;;;;;;0.00;0.00;;;;;;;21.57;80.94;101595.00;5019041;28;20129;-71
2022/08/26 11:06:38;;;;;;;0.00;0.00;;;;;;;21.61;81.34;101598.22;5010460;28;20344;-69
2022/08/26 11:09:07;;;;;;;0.00;0.00;;;;;;;21.62;81.09;101602.69;5019633;28;20033;-70
2022/08/26 11:11:38;;;;;;;0.00;0.00;;;;;;;21.63;81.61;101599.81;5025450;28;20041;-69
2022/08/26 11:14:05;;;;;;;0.00;0.00;;;;;;;21.69;81.10;101604.56;5018502;28;20116;-70
2022/08/26 11:16:42;;;;;;;0.00;0.00;;;;;;;21.64;80.54;101604.25;5015666;28;20034;-70
2022/08/26 11:19:09;;;;;;;0.00;0.00;;;;;;;21.63;81.12;101596.19;5016675;28;20029;-70
2022/08/26 11:21:48;;;;;;;0.00;0.00;;;;;;;21.67;80.90;101601.16;5017344;28;20053;-70
2022/08/26 11:24:51;;;;;;;0.00;0.00;;;;;;;21.69;80.73;101603.72;5022525;28;20033;-69
2022/08/26 11:27:23;;;;;;;0.00;0.00;;;;;;;21.69;80.74;101599.13;5018811;28;20025;-69
2022/08/26 11:30:28;;;;;;;0.00;0.00;;;;;;;21.71;81.10;101598.91;5015679;28;20029;-69
2022/08/26 11:32:56;;;;;;;0.00;0.00;;;;;;;21.80;81.17;101597.00;5022953;28;20033;-69
2022/08/26 11:35:24;;;;;;;0.00;0.00;;;;;;;21.81;81.37;101593.25;5017747;28;20077;-68
2022/08/26 11:37:53;;;;;;;0.10;0.00;;;;;;;21.81;80.90;101596.84;5019918;28;20253;-69